Milan, Tennessee
Current Conditions -  °F | °C
As of 3:39 AM on Sunday 26 Oct 2014 (Local Time) from KMKL Reporting Station
Haze Haze  
Wind Chill: 55°   Ceiling: 900
Heat Index: 55°   Visibility: 0.75mi
Dew Point: 55°   Wind: 0mph
Humidity: 100%   Direction: NA
Pressure: 30"   Gusts: NA
Location:  35.92°N, 88.76°W
Report Text: KMKL 260839Z 00000KT 3/4SM BR VV009 13/13 A3000 RMK AO2 VIS 1/2V2 1/2
Loading
Personal Weather Stations






























Interactive Weather Map
Tropical Storm Tracking
New forecast layout! Learn more

10-Day Weather Forecast

Advertisements
Track Severe Weather on mobile